createdAt,value
2022-11-23T00:02:09.282Z,53.00
2022-11-23T00:05:10.793Z,52.80
2022-11-23T00:08:12.830Z,53.10
2022-11-23T00:11:15.077Z,71.30
2022-11-23T00:14:16.451Z,53.30
2022-11-23T00:17:17.853Z,53.50
2022-11-23T00:20:19.514Z,53.70
2022-11-23T00:23:21.563Z,53.60
2022-11-23T00:26:23.327Z,53.30
2022-11-23T00:29:24.725Z,53.60
2022-11-23T00:32:28.403Z,54.00
2022-11-23T00:35:29.889Z,54.10
2022-11-23T00:38:32.093Z,54.50
2022-11-23T00:41:33.623Z,72.50
2022-11-23T00:44:37.209Z,54.30
2022-11-23T00:47:40.914Z,54.60
2022-11-23T00:50:42.321Z,55.10
2022-11-23T00:53:44.754Z,55.30
2022-11-23T00:56:46.356Z,55.40
2022-11-23T00:59:47.887Z,55.10
2022-11-23T01:02:49.334Z,55.40
2022-11-23T01:05:50.772Z,55.50
2022-11-23T01:08:54.442Z,55.60
2022-11-23T01:11:56.917Z,55.30
2022-11-23T01:14:58.463Z,56.00
2022-11-23T01:17:59.916Z,56.20
2022-11-23T01:21:01.877Z,55.90
2022-11-23T01:24:06.943Z,56.00
2022-11-23T01:27:09.116Z,55.90
2022-11-23T01:30:10.866Z,56.20
2022-11-23T01:33:12.833Z,56.30
2022-11-23T01:36:16.746Z,56.10
2022-11-23T01:39:19.171Z,56.00
2022-11-23T01:42:20.564Z,56.40
2022-11-23T01:45:35.874Z,55.90
2022-11-23T01:48:42.326Z,56.20
2022-11-23T01:51:47.666Z,56.40
2022-11-23T01:54:52.787Z,56.40
2022-11-23T01:57:55.465Z,56.40
2022-11-23T02:00:58.170Z,56.50
2022-11-23T02:04:01.460Z,56.70
2022-11-23T02:07:04.296Z,56.40
2022-11-23T02:10:07.237Z,56.60
2022-11-23T02:13:11.745Z,56.70
2022-11-23T02:16:14.120Z,56.40
2022-11-23T02:19:25.167Z,56.60
2022-11-23T02:22:34.583Z,56.60
2022-11-23T02:25:42.659Z,57.00
2022-11-23T02:28:48.738Z,56.60
2022-11-23T02:31:50.244Z,56.90
2022-11-23T02:34:51.777Z,57.10
2022-11-23T02:37:53.852Z,57.20
2022-11-23T02:40:55.706Z,57.20
2022-11-23T02:43:57.833Z,57.40
2022-11-23T02:47:00.865Z,57.50
2022-11-23T02:50:02.472Z,57.50
2022-11-23T02:53:03.936Z,57.50
2022-11-23T02:56:06.974Z,57.60
2022-11-23T02:59:09.132Z,57.90
2022-11-23T03:02:10.574Z,57.90
2022-11-23T03:05:12.150Z,58.00
2022-11-23T03:08:13.613Z,58.60
2022-11-23T03:11:16.140Z,57.70
2022-11-23T03:14:18.188Z,57.30
2022-11-23T03:17:28.149Z,57.70
2022-11-23T03:20:29.531Z,57.60
2022-11-23T03:23:31.501Z,58.00
2022-11-23T03:26:35.746Z,57.80
2022-11-23T03:29:44.752Z,58.00
2022-11-23T03:32:51.505Z,58.20
2022-11-23T03:35:54.150Z,58.00
2022-11-23T03:39:00.517Z,58.00
2022-11-23T03:42:21.358Z,58.20
2022-11-23T03:45:23.526Z,58.30
2022-11-23T03:48:24.946Z,58.60
2022-11-23T03:51:27.067Z,58.60
2022-11-23T03:54:29.675Z,58.50
2022-11-23T03:57:30.993Z,58.60
2022-11-23T04:00:35.656Z,76.80
2022-11-23T04:03:37.910Z,58.90
2022-11-23T04:06:48.528Z,58.70
2022-11-23T04:09:53.971Z,58.70
2022-11-23T04:13:01.849Z,58.80
2022-11-23T04:16:06.481Z,77.00
2022-11-23T04:19:08.244Z,58.90
2022-11-23T04:22:10.608Z,59.20
2022-11-23T04:25:16.723Z,59.20
2022-11-23T04:28:18.486Z,59.40
2022-11-23T04:31:22.626Z,59.30
2022-11-23T04:34:32.433Z,58.90
2022-11-23T04:37:37.232Z,59.10
2022-11-23T04:40:38.780Z,59.10
2022-11-23T04:43:42.216Z,59.20
2022-11-23T04:46:44.228Z,58.80
2022-11-23T04:49:48.092Z,58.80
2022-11-23T04:52:50.054Z,59.30
2022-11-23T04:55:56.182Z,59.10
2022-11-23T04:58:57.887Z,59.10
2022-11-23T05:02:00.283Z,59.10
2022-11-23T05:05:17.699Z,59.40
2022-11-23T05:08:19.252Z,59.30
2022-11-23T05:11:28.326Z,59.40
2022-11-23T05:14:32.992Z,59.00
2022-11-23T05:17:35.591Z,59.20
2022-11-23T05:20:39.834Z,59.30
2022-11-23T05:23:41.662Z,59.20
2022-11-23T05:26:42.996Z,59.20
2022-11-23T05:29:44.642Z,59.50
2022-11-23T05:32:47.134Z,58.90
2022-11-23T05:35:48.759Z,59.30
2022-11-23T05:38:51.634Z,59.40
2022-11-23T05:42:00.538Z,59.30
2022-11-23T05:45:11.522Z,59.50
2022-11-23T05:48:18.313Z,59.50
2022-11-23T05:51:26.703Z,59.40
2022-11-23T05:54:28.081Z,59.90
2022-11-23T05:57:36.603Z,59.50
2022-11-23T06:00:40.451Z,77.80
2022-11-23T06:03:44.015Z,60.00
2022-11-23T06:06:45.668Z,60.00
2022-11-23T06:09:47.245Z,59.80
2022-11-23T06:12:49.220Z,60.30
2022-11-23T06:15:53.066Z,60.20
2022-11-23T06:19:00.224Z,60.10
2022-11-23T06:22:01.685Z,60.60
2022-11-23T06:25:07.510Z,60.70
2022-11-23T06:28:20.522Z,60.40
2022-11-23T06:31:23.912Z,60.80
2022-11-23T06:34:25.870Z,60.90
2022-11-23T06:37:27.423Z,60.70
2022-11-23T06:40:30.505Z,60.90
2022-11-23T06:43:33.313Z,61.30
2022-11-23T06:46:35.478Z,61.70
2022-11-23T06:49:37.470Z,61.60
2022-11-23T06:52:48.092Z,61.90
2022-11-23T06:55:51.109Z,79.60
2022-11-23T06:58:54.547Z,61.90
2022-11-23T07:02:00.582Z,61.90
2022-11-23T07:05:08.706Z,61.00
2022-11-23T07:08:11.686Z,61.90
2022-11-23T07:11:14.481Z,61.70
2022-11-23T07:14:16.090Z,62.20
2022-11-23T07:17:21.065Z,62.10
2022-11-23T07:20:23.055Z,62.20
2022-11-23T07:23:24.872Z,62.20
2022-11-23T07:26:26.433Z,62.10
2022-11-23T07:29:27.740Z,61.70
2022-11-23T07:32:29.791Z,62.70
2022-11-23T07:35:32.341Z,62.20
2022-11-23T07:38:33.806Z,62.40
2022-11-23T07:41:37.454Z,62.50
2022-11-23T07:44:42.648Z,62.40
2022-11-23T07:47:45.294Z,62.10
2022-11-23T07:50:47.315Z,62.10
2022-11-23T07:53:48.761Z,62.50
2022-11-23T07:56:50.040Z,62.50
2022-11-23T07:59:51.561Z,62.50
2022-11-23T08:03:25.506Z,62.50
2022-11-23T08:06:15.790Z,62.10
2022-11-23T08:09:17.442Z,61.90
2022-11-23T08:12:20.958Z,62.10
2022-11-23T08:15:23.294Z,61.60
2022-11-23T08:18:24.728Z,61.70
2022-11-23T08:21:26.723Z,61.50
2022-11-23T08:24:28.211Z,61.60
2022-11-23T08:27:29.687Z,61.80
2022-11-23T08:30:32.582Z,61.30
2022-11-23T08:33:35.852Z,60.90
2022-11-23T08:36:37.724Z,60.50
2022-11-23T08:39:39.310Z,61.20
2022-11-23T08:42:42.394Z,60.50
2022-11-23T08:45:44.086Z,60.50
2022-11-23T08:48:45.569Z,59.50
2022-11-23T08:51:50.279Z,59.60
2022-11-23T08:54:51.985Z,59.90
2022-11-23T08:58:00.120Z,59.60
2022-11-23T09:01:02.374Z,60.80
2022-11-23T09:04:04.243Z,59.70
2022-11-23T09:07:06.424Z,58.40
2022-11-23T09:10:08.208Z,58.70
2022-11-23T09:13:10.093Z,57.70
2022-11-23T09:16:11.577Z,58.20
2022-11-23T09:19:13.343Z,58.10
2022-11-23T09:22:15.264Z,57.90
2022-11-23T09:25:16.973Z,58.00
2022-11-23T09:28:19.071Z,57.40
2022-11-23T09:31:20.607Z,56.70
2022-11-23T09:34:22.425Z,56.70
2022-11-23T09:37:24.679Z,56.70
2022-11-23T09:40:29.745Z,56.70
2022-11-23T09:43:41.397Z,56.20
2022-11-23T09:46:48.485Z,55.30
2022-11-23T09:50:02.481Z,55.50
2022-11-23T09:53:11.748Z,55.90
2022-11-23T09:56:18.037Z,55.40
2022-11-23T09:59:31.121Z,55.00
2022-11-23T10:02:40.942Z,55.40
2022-11-23T10:05:47.647Z,54.70
2022-11-23T10:09:12.847Z,54.80
2022-11-23T10:12:30.002Z,54.40
2022-11-23T10:15:38.960Z,54.00
2022-11-23T10:18:49.908Z,54.00
2022-11-23T10:22:01.717Z,54.40
2022-11-23T10:25:13.952Z,53.90
2022-11-23T10:28:24.204Z,53.60
2022-11-23T10:31:33.328Z,53.60
2022-11-23T10:34:48.540Z,50.80
2022-11-23T10:37:53.459Z,53.50
2022-11-23T10:41:02.605Z,53.20
2022-11-23T10:44:18.649Z,53.20
2022-11-23T10:47:35.306Z,53.00
2022-11-23T10:50:40.159Z,53.10
2022-11-23T10:53:42.100Z,52.70
2022-11-23T10:56:47.443Z,52.60
2022-11-23T10:59:58.812Z,52.50
2022-11-23T11:03:01.622Z,51.80
2022-11-23T11:06:09.071Z,52.00
2022-11-23T11:09:20.592Z,51.70
2022-11-23T11:12:22.691Z,51.20
2022-11-23T11:15:24.217Z,51.70
2022-11-23T11:18:29.639Z,51.30
2022-11-23T11:21:33.912Z,51.20
2022-11-23T11:24:38.060Z,51.00
2022-11-23T11:27:51.295Z,51.20
2022-11-23T11:31:02.684Z,50.80
2022-11-23T11:34:14.571Z,50.30
2022-11-23T11:37:24.063Z,50.60
2022-11-23T11:40:31.587Z,50.90
2022-11-23T11:43:40.013Z,50.60
2022-11-23T11:46:47.674Z,50.90
2022-11-23T11:49:53.518Z,51.10
2022-11-23T11:53:01.708Z,50.80
2022-11-23T11:56:11.344Z,50.60
2022-11-23T11:59:19.691Z,50.90
2022-11-23T12:02:24.502Z,50.70
2022-11-23T12:05:32.195Z,50.50
2022-11-23T12:08:43.172Z,50.60
2022-11-23T12:11:44.824Z,50.40
2022-11-23T12:14:46.898Z,50.30
2022-11-23T12:18:11.842Z,49.90
2022-11-23T12:21:28.792Z,50.20
2022-11-23T12:24:48.725Z,50.40
2022-11-23T12:28:03.364Z,50.30
2022-11-23T12:31:13.643Z,50.50
2022-11-23T12:34:31.804Z,50.30
2022-11-23T12:37:42.810Z,50.20
2022-11-23T12:41:05.663Z,50.20
2022-11-23T12:44:39.518Z,50.60
2022-11-23T12:47:49.831Z,49.90
2022-11-23T12:51:00.057Z,49.90
2022-11-23T12:57:52.181Z,49.80
2022-11-23T13:00:57.846Z,50.10
2022-11-23T13:04:26.273Z,50.70
2022-11-23T13:07:49.063Z,50.00
2022-11-23T13:11:03.708Z,50.40
2022-11-23T13:14:17.012Z,50.00
2022-11-23T13:17:29.314Z,50.60
2022-11-23T13:20:54.944Z,50.00
2022-11-23T13:23:56.772Z,50.00
2022-11-23T13:27:28.290Z,50.00
2022-11-23T13:30:59.104Z,50.30
2022-11-23T13:33:58.483Z,49.10
2022-11-23T13:37:17.580Z,50.00
2022-11-23T13:40:23.409Z,50.20
2022-11-23T13:43:28.483Z,50.90
2022-11-23T13:46:38.013Z,49.30
2022-11-23T13:49:45.824Z,49.80
2022-11-23T13:52:58.541Z,50.70
2022-11-23T13:56:24.318Z,50.00
2022-11-23T13:59:34.370Z,50.70
2022-11-23T14:02:36.277Z,48.50
2022-11-23T14:05:56.789Z,49.50
2022-11-23T14:09:06.421Z,50.20
2022-11-23T14:12:28.440Z,50.50
2022-11-23T14:15:57.950Z,50.70
2022-11-23T14:19:16.659Z,48.20
2022-11-23T14:22:48.883Z,47.90
2022-11-23T14:26:20.624Z,49.60
2022-11-23T14:29:58.078Z,48.50
2022-11-23T14:33:26.541Z,48.30
2022-11-23T14:36:41.871Z,47.60
2022-11-23T14:39:59.696Z,50.20
2022-11-23T14:43:05.127Z,47.40
2022-11-23T14:46:19.490Z,47.40
2022-11-23T14:49:38.420Z,49.70
2022-11-23T14:52:48.021Z,48.80
2022-11-23T14:55:51.456Z,49.50
2022-11-23T14:59:17.819Z,48.80
2022-11-23T15:02:35.648Z,47.60
2022-11-23T15:05:48.748Z,47.70
2022-11-23T15:09:01.239Z,47.80
2022-11-23T15:12:05.648Z,49.70
2022-11-23T15:15:19.867Z,49.20
2022-11-23T15:18:35.008Z,50.20
2022-11-23T15:21:39.941Z,49.00
2022-11-23T15:24:45.373Z,50.30
2022-11-23T15:27:48.567Z,50.00
2022-11-23T15:30:59.258Z,49.80
2022-11-23T15:34:04.635Z,49.30
2022-11-23T15:37:10.001Z,49.90
2022-11-23T15:40:14.642Z,49.90
2022-11-23T15:43:18.481Z,48.40
2022-11-23T15:46:24.853Z,47.80
2022-11-23T15:49:26.636Z,48.40
2022-11-23T15:52:32.260Z,48.70
2022-11-23T15:55:34.691Z,49.20
2022-11-23T15:58:36.289Z,48.20
2022-11-23T16:01:38.528Z,49.20
2022-11-23T16:04:43.717Z,48.60
2022-11-23T16:08:01.596Z,49.80
2022-11-23T16:11:22.453Z,48.50
2022-11-23T16:14:31.988Z,47.70
2022-11-23T16:17:34.355Z,47.80
2022-11-23T16:20:35.995Z,48.60
2022-11-23T16:23:44.191Z,48.20
2022-11-23T16:26:45.804Z,48.10
2022-11-23T16:29:51.024Z,48.10
2022-11-23T16:32:53.354Z,48.20
2022-11-23T16:35:56.522Z,48.20
2022-11-23T16:39:03.993Z,48.90
2022-11-23T16:42:10.183Z,49.30
2022-11-23T16:45:11.908Z,48.70
2022-11-23T16:48:38.710Z,43.60
2022-11-23T16:51:41.960Z,43.50
2022-11-23T16:54:45.279Z,44.30
2022-11-23T16:57:51.583Z,44.10
2022-11-23T17:00:54.492Z,44.30
2022-11-23T17:03:56.617Z,44.30
2022-11-23T17:06:58.486Z,44.10
2022-11-23T17:10:00.203Z,46.10
2022-11-23T17:13:03.336Z,46.80
2022-11-23T17:16:16.322Z,48.00
2022-11-23T17:19:20.199Z,47.60
2022-11-23T17:22:22.049Z,48.00
2022-11-23T17:25:23.693Z,48.10
2022-11-23T17:28:27.227Z,49.30
2022-11-23T17:31:29.032Z,48.20
2022-11-23T17:34:31.127Z,48.60
2022-11-23T17:37:33.904Z,47.50
2022-11-23T17:40:36.338Z,48.70
2022-11-23T17:43:39.388Z,48.20
2022-11-23T17:46:41.754Z,48.60
2022-11-23T17:49:43.832Z,48.30
2022-11-23T17:52:48.355Z,48.40
2022-11-23T17:55:50.029Z,49.20
2022-11-23T17:58:52.061Z,48.20
2022-11-23T18:01:53.855Z,47.40
2022-11-23T18:04:59.035Z,48.00
2022-11-23T18:08:07.800Z,48.10
2022-11-23T18:11:10.513Z,48.70
2022-11-23T18:14:12.863Z,48.80
2022-11-23T18:17:16.688Z,48.40
2022-11-23T18:20:23.729Z,49.20
2022-11-23T18:23:25.540Z,48.90
2022-11-23T18:26:29.433Z,47.70
2022-11-23T18:29:33.511Z,49.00
2022-11-23T18:32:42.043Z,49.30
2022-11-23T18:35:46.399Z,49.00
2022-11-23T18:38:48.188Z,47.20
2022-11-23T18:41:49.792Z,47.30
2022-11-23T18:44:51.289Z,47.30
2022-11-23T18:47:52.570Z,47.80
2022-11-23T18:50:54.591Z,48.30
2022-11-23T18:53:56.969Z,48.00
2022-11-23T18:56:58.420Z,47.90
2022-11-23T18:59:59.763Z,48.10
2022-11-23T19:03:02.008Z,48.30
2022-11-23T19:06:05.362Z,48.40
2022-11-23T19:09:06.829Z,48.10
2022-11-23T19:12:09.041Z,48.10
2022-11-23T19:15:11.158Z,48.40
2022-11-23T19:18:12.690Z,48.30
2022-11-23T19:21:16.962Z,48.00
2022-11-23T19:24:18.468Z,48.10
2022-11-23T19:27:19.933Z,47.90
2022-11-23T19:30:21.248Z,48.00
2022-11-23T19:33:22.787Z,48.20
2022-11-23T19:36:25.162Z,48.00
2022-11-23T19:39:26.789Z,48.00
2022-11-23T19:42:28.580Z,48.60
2022-11-23T19:45:30.021Z,48.30
2022-11-23T19:48:32.017Z,48.70
2022-11-23T19:51:34.215Z,48.90
2022-11-23T19:54:35.623Z,49.10
2022-11-23T19:57:36.848Z,49.40
2022-11-23T20:00:39.046Z,49.40
2022-11-23T20:03:42.338Z,49.20
2022-11-23T20:06:44.425Z,48.60
2022-11-23T20:09:46.044Z,48.60
2022-11-23T20:12:47.656Z,49.30
2022-11-23T20:15:49.452Z,49.20
2022-11-23T20:18:56.133Z,49.80
2022-11-23T20:21:58.077Z,48.90
2022-11-23T20:24:59.929Z,49.10
2022-11-23T20:28:01.495Z,49.10
2022-11-23T20:31:03.833Z,49.10
2022-11-23T20:34:07.807Z,49.60
2022-11-23T20:37:10.938Z,49.50
2022-11-23T20:40:12.816Z,49.30
2022-11-23T20:43:14.398Z,49.20
2022-11-23T20:46:31.696Z,49.30
2022-11-23T20:49:37.369Z,49.40
2022-11-23T20:52:39.527Z,50.00
2022-11-23T20:55:41.145Z,49.30
2022-11-23T20:58:43.355Z,48.80
2022-11-23T21:01:44.904Z,49.20
2022-11-23T21:04:46.392Z,49.20
2022-11-23T21:07:48.479Z,49.40
2022-11-23T21:11:03.207Z,49.50
2022-11-23T21:14:06.815Z,48.70
2022-11-23T21:17:08.519Z,49.10
2022-11-23T21:20:10.143Z,49.20
2022-11-23T21:23:12.513Z,48.80
2022-11-23T21:26:13.914Z,49.30
2022-11-23T21:29:15.628Z,49.10
2022-11-23T21:32:17.025Z,49.20
2022-11-23T21:35:18.718Z,49.30
2022-11-23T21:38:30.485Z,49.40
2022-11-23T21:41:32.142Z,48.90
2022-11-23T21:44:34.039Z,49.10
2022-11-23T21:47:35.660Z,49.70
2022-11-23T21:50:36.988Z,49.80
2022-11-23T21:53:41.052Z,50.00
2022-11-23T21:56:43.405Z,67.30
2022-11-23T21:59:44.834Z,49.60
2022-11-23T22:02:46.095Z,50.10
2022-11-23T22:05:55.532Z,50.20
2022-11-23T22:08:59.264Z,49.90
2022-11-23T22:12:00.706Z,49.70
2022-11-23T22:15:02.266Z,50.10
2022-11-23T22:18:03.727Z,49.70
2022-11-23T22:21:05.128Z,50.10
2022-11-23T22:24:11.027Z,50.30
2022-11-23T22:27:12.395Z,49.90
2022-11-23T22:30:14.701Z,50.40
2022-11-23T22:33:16.100Z,50.40
2022-11-23T22:36:19.903Z,50.30
2022-11-23T22:39:21.907Z,50.30
2022-11-23T22:42:23.299Z,50.50
2022-11-23T22:45:24.910Z,50.60
2022-11-23T22:48:26.357Z,50.60
2022-11-23T22:51:28.064Z,50.70
2022-11-23T22:54:30.034Z,50.90
2022-11-23T22:57:31.508Z,51.00
2022-11-23T23:00:32.748Z,50.80
2022-11-23T23:03:34.792Z,50.90
2022-11-23T23:06:37.555Z,51.00
2022-11-23T23:09:39.642Z,50.80
2022-11-23T23:12:41.009Z,50.50
2022-11-23T23:15:43.004Z,50.00
2022-11-23T23:18:44.770Z,50.10
2022-11-23T23:21:46.148Z,50.60
2022-11-23T23:24:48.115Z,50.60
2022-11-23T23:27:49.546Z,50.70
2022-11-23T23:30:50.913Z,50.80
2022-11-23T23:33:53.063Z,50.80
2022-11-23T23:36:54.664Z,50.60
2022-11-23T23:39:56.765Z,50.30
2022-11-23T23:42:58.180Z,50.40
2022-11-23T23:46:03.212Z,50.70
2022-11-23T23:49:04.764Z,50.50
2022-11-23T23:52:06.058Z,50.50
2022-11-23T23:55:08.935Z,50.80
2022-11-23T23:58:10.423Z,50.60
